createdAt,value
2022-09-01T00:01:42.287Z,9.70
2022-09-01T00:03:47.030Z,12.68
2022-09-01T00:05:49.962Z,8.43
2022-09-01T00:07:51.603Z,8.98
2022-09-01T00:09:53.301Z,11.98
2022-09-01T00:11:55.314Z,10.40
2022-09-01T00:13:57.410Z,12.95
2022-09-01T00:16:04.329Z,14.13
2022-09-01T00:18:06.042Z,11.48
2022-09-01T00:20:08.203Z,10.27
2022-09-01T00:22:09.868Z,10.75
2022-09-01T00:24:13.344Z,10.77
2022-09-01T00:26:15.139Z,10.13
2022-09-01T00:28:16.732Z,7.45
2022-09-01T00:30:19.413Z,10.55
2022-09-01T00:32:21.060Z,7.13
2022-09-01T00:34:23.133Z,8.60
2022-09-01T00:36:24.906Z,8.18
2022-09-01T00:38:27.059Z,10.45
2022-09-01T00:40:29.368Z,8.70
2022-09-01T00:42:31.035Z,8.52
2022-09-01T00:44:32.691Z,10.95
2022-09-01T00:46:41.767Z,10.13
2022-09-01T00:48:57.446Z,8.80
2022-09-01T00:50:59.651Z,18.38
2022-09-01T00:53:01.325Z,10.13
2022-09-01T00:55:08.926Z,11.38
2022-09-01T00:57:12.781Z,12.43
2022-09-01T00:59:16.819Z,9.68
2022-09-01T01:01:18.654Z,9.70
2022-09-01T01:03:20.541Z,12.57
2022-09-01T01:05:33.070Z,8.88
2022-09-01T01:07:41.691Z,11.02
2022-09-01T01:09:47.498Z,12.02
2022-09-01T01:11:49.326Z,11.68
2022-09-01T01:14:01.053Z,15.95
2022-09-01T01:16:03.987Z,11.40
2022-09-01T01:18:05.555Z,10.82
2022-09-01T01:20:27.189Z,7.55
2022-09-01T01:23:00.277Z,36.17
2022-09-01T01:25:02.504Z,9.45
2022-09-01T01:27:05.334Z,7.75
2022-09-01T01:29:09.934Z,7.95
2022-09-01T01:31:17.543Z,11.45
2022-09-01T01:33:26.975Z,10.80
2022-09-01T01:35:30.216Z,11.50
2022-09-01T01:37:35.519Z,11.25
2022-09-01T01:39:40.847Z,7.13
2022-09-01T01:41:46.631Z,9.00
2022-09-01T01:43:48.625Z,10.35
2022-09-01T01:45:52.610Z,9.10
2022-09-01T01:47:54.584Z,11.05
2022-09-01T01:49:57.491Z,8.82
2022-09-01T01:51:59.154Z,9.48
2022-09-01T01:54:05.753Z,9.57
2022-09-01T01:56:09.072Z,8.60
2022-09-01T01:58:15.682Z,10.45
2022-09-01T02:00:19.793Z,8.98
2022-09-01T02:02:28.830Z,11.65
2022-09-01T02:04:34.238Z,11.30
2022-09-01T02:06:36.988Z,9.00
2022-09-01T02:08:39.630Z,9.30
2022-09-01T02:10:44.261Z,13.00
2022-09-01T02:12:46.365Z,10.15
2022-09-01T02:14:48.639Z,11.10
2022-09-01T02:16:50.266Z,7.85
2022-09-01T02:18:53.999Z,9.25
2022-09-01T02:20:56.620Z,12.10
2022-09-01T02:22:58.897Z,9.70
2022-09-01T02:25:01.058Z,9.40
2022-09-01T02:27:02.954Z,12.98
2022-09-01T02:29:09.293Z,9.15
2022-09-01T02:31:11.783Z,8.45
2022-09-01T02:33:19.182Z,10.65
2022-09-01T02:35:20.812Z,14.48
2022-09-01T02:37:25.222Z,10.70
2022-09-01T02:39:29.306Z,25.63
2022-09-01T02:41:34.483Z,36.53
2022-09-01T02:43:36.178Z,30.98
2022-09-01T02:45:39.998Z,35.00
2022-09-01T02:47:48.494Z,37.22
2022-09-01T02:49:50.957Z,34.50
2022-09-01T02:51:54.256Z,32.15
2022-09-01T02:53:55.941Z,30.35
2022-09-01T02:55:59.527Z,16.40
2022-09-01T02:58:01.188Z,20.55
2022-09-01T03:00:20.678Z,17.13
2022-09-01T03:02:23.216Z,20.88
2022-09-01T03:04:25.023Z,20.55
2022-09-01T03:06:26.950Z,17.75
2022-09-01T03:08:28.509Z,14.82
2022-09-01T03:10:41.730Z,15.80
2022-09-01T03:12:43.348Z,32.53
2022-09-01T03:14:44.969Z,46.92
2022-09-01T03:16:46.719Z,54.13
2022-09-01T03:18:49.499Z,56.95
2022-09-01T03:20:53.099Z,55.58
2022-09-01T03:22:56.751Z,46.33
2022-09-01T03:24:58.530Z,40.92
2022-09-01T03:27:01.165Z,48.17
2022-09-01T03:29:03.765Z,41.05
2022-09-01T03:31:06.293Z,38.30
2022-09-01T03:33:08.194Z,38.28
2022-09-01T03:35:09.970Z,46.45
2022-09-01T03:37:12.279Z,47.30
2022-09-01T03:39:16.781Z,53.83
2022-09-01T03:41:22.461Z,37.25
2022-09-01T03:43:25.028Z,33.88
2022-09-01T03:45:27.289Z,37.50
2022-09-01T03:47:28.902Z,41.47
2022-09-01T03:49:30.478Z,35.03
2022-09-01T03:51:32.443Z,25.88
2022-09-01T03:53:37.753Z,17.48
2022-09-01T03:55:40.720Z,9.55
2022-09-01T03:57:42.890Z,10.07
2022-09-01T03:59:45.351Z,7.18
2022-09-01T04:01:47.040Z,7.65
2022-09-01T04:03:49.142Z,7.55
2022-09-01T04:05:52.264Z,8.13
2022-09-01T04:07:54.756Z,13.25
2022-09-01T04:09:56.525Z,7.78
2022-09-01T04:11:58.103Z,12.65
2022-09-01T04:14:00.482Z,10.80
2022-09-01T04:16:02.763Z,10.05
2022-09-01T04:18:09.764Z,8.27
2022-09-01T04:20:11.505Z,8.20
2022-09-01T04:22:14.446Z,9.00
2022-09-01T04:24:19.063Z,7.88
2022-09-01T04:26:24.021Z,12.20
2022-09-01T04:28:32.061Z,7.05
2022-09-01T04:30:33.748Z,9.80
2022-09-01T04:32:35.813Z,6.85
2022-09-01T04:34:40.011Z,7.15
2022-09-01T04:36:43.654Z,6.68
2022-09-01T04:38:50.428Z,7.78
2022-09-01T04:40:52.702Z,5.55
2022-09-01T04:42:54.348Z,8.50
2022-09-01T04:44:57.665Z,9.65
2022-09-01T04:46:59.460Z,9.73
2022-09-01T04:49:13.306Z,8.75
2022-09-01T04:51:15.601Z,8.82
2022-09-01T04:53:18.578Z,11.00
2022-09-01T04:55:20.329Z,6.07
2022-09-01T04:57:22.295Z,7.60
2022-09-01T04:59:27.177Z,6.75
2022-09-01T05:01:28.995Z,5.07
2022-09-01T05:03:32.086Z,7.93
2022-09-01T05:05:44.967Z,6.65
2022-09-01T05:07:47.130Z,12.25
2022-09-01T05:09:49.278Z,5.63
2022-09-01T05:11:51.537Z,3.97
2022-09-01T05:13:57.860Z,5.97
2022-09-01T05:16:03.117Z,17.35
2022-09-01T05:18:10.116Z,18.42
2022-09-01T05:20:12.012Z,14.82
2022-09-01T05:22:14.447Z,17.55
2022-09-01T05:24:19.150Z,21.90
2022-09-01T05:26:23.912Z,24.05
2022-09-01T05:28:27.163Z,19.23
2022-09-01T05:30:28.752Z,14.45
2022-09-01T05:32:30.868Z,14.43
2022-09-01T05:34:36.432Z,15.70
2022-09-01T05:36:42.940Z,23.60
2022-09-01T05:38:45.517Z,19.23
2022-09-01T05:41:02.108Z,21.83
2022-09-01T05:43:04.523Z,16.75
2022-09-01T05:45:07.097Z,8.73
2022-09-01T05:47:09.935Z,12.82
2022-09-01T05:49:22.349Z,15.70
2022-09-01T05:51:44.219Z,6.38
2022-09-01T05:53:47.312Z,6.20
2022-09-01T05:55:50.938Z,7.72
2022-09-01T05:57:52.641Z,3.97
2022-09-01T05:59:54.565Z,2.95
2022-09-01T06:01:56.345Z,4.47
2022-09-01T06:03:59.343Z,3.75
2022-09-01T06:06:08.812Z,5.65
2022-09-01T06:08:10.847Z,6.32
2022-09-01T06:10:16.137Z,5.05
2022-09-01T06:12:18.957Z,4.18
2022-09-01T06:14:20.697Z,5.03
2022-09-01T06:16:24.409Z,4.68
2022-09-01T06:18:28.028Z,4.13
2022-09-01T06:20:30.151Z,3.38
2022-09-01T06:22:31.745Z,4.43
2022-09-01T06:24:33.696Z,3.47
2022-09-01T06:26:37.062Z,2.25
2022-09-01T06:28:41.442Z,5.82
2022-09-01T06:30:45.655Z,7.88
2022-09-01T06:32:49.721Z,4.28
2022-09-01T06:34:51.599Z,3.85
2022-09-01T06:36:53.644Z,6.45
2022-09-01T06:38:55.291Z,9.82
2022-09-01T06:41:04.601Z,8.48
2022-09-01T06:43:08.174Z,4.47
2022-09-01T06:45:10.539Z,5.28
2022-09-01T06:47:12.125Z,4.05
2022-09-01T06:49:13.691Z,8.00
2022-09-01T06:51:21.908Z,7.00
2022-09-01T06:53:39.213Z,6.57
2022-09-01T06:55:41.791Z,4.53
2022-09-01T06:58:06.122Z,6.35
2022-09-01T07:00:18.812Z,4.78
2022-09-01T07:02:22.387Z,3.92
2022-09-01T07:04:30.410Z,3.60
2022-09-01T07:18:32.822Z,2.60
2022-09-01T07:21:02.798Z,2.05
2022-09-01T07:23:03.993Z,2.80
2022-09-01T07:25:11.816Z,3.70
2022-09-01T07:27:14.070Z,4.97
2022-09-01T07:29:17.638Z,4.65
2022-09-01T07:36:28.022Z,2.22
2022-09-01T07:43:22.311Z,1.83
2022-09-01T07:45:26.935Z,4.78
2022-09-01T07:50:12.485Z,2.03
2022-09-01T07:52:13.268Z,0.95
2022-09-01T07:54:15.305Z,1.15
2022-09-01T07:56:20.062Z,3.45
2022-09-01T07:58:25.039Z,0.93
2022-09-01T08:00:30.168Z,4.60
2022-09-01T08:02:33.560Z,1.45
2022-09-01T08:04:35.261Z,1.33
2022-09-01T08:06:38.424Z,1.95
2022-09-01T08:08:41.010Z,3.38
2022-09-01T08:10:43.495Z,3.20
2022-09-01T08:12:45.089Z,3.08
2022-09-01T08:14:46.835Z,2.65
2022-09-01T08:16:55.585Z,18.67
2022-09-01T08:18:58.063Z,3.13
2022-09-01T08:20:59.755Z,1.85
2022-09-01T08:23:01.827Z,1.55
2022-09-01T08:25:12.903Z,2.30
2022-09-01T08:27:14.541Z,1.17
2022-09-01T08:29:16.227Z,1.10
2022-09-01T08:31:19.485Z,3.58
2022-09-01T08:33:22.120Z,1.40
2022-09-01T08:35:23.735Z,4.05
2022-09-01T08:37:25.898Z,1.13
2022-09-01T08:39:27.478Z,1.45
2022-09-01T08:41:49.231Z,3.20
2022-09-01T08:44:22.424Z,2.58
2022-09-01T08:46:39.413Z,2.13
2022-09-01T08:51:27.595Z,11.25
2022-09-01T08:53:33.545Z,3.33
2022-09-01T08:55:39.403Z,3.53
2022-09-01T08:57:44.271Z,5.47
2022-09-01T08:59:45.869Z,6.15
2022-09-01T09:01:57.294Z,4.43
2022-09-01T09:04:20.816Z,2.03
2022-09-01T09:06:29.794Z,4.60
2022-09-01T09:08:52.857Z,1.85
2022-09-01T09:11:18.952Z,6.78
2022-09-01T09:13:40.002Z,10.13
2022-09-01T09:15:52.786Z,2.65
2022-09-01T09:18:27.146Z,0.82
2022-09-01T09:20:36.082Z,1.00
2022-09-01T09:22:43.476Z,1.75
2022-09-01T09:25:09.834Z,1.70
2022-09-01T09:27:20.717Z,1.70
2022-09-01T09:29:23.439Z,1.33
2022-09-01T09:31:29.350Z,2.08
2022-09-01T09:33:51.708Z,0.63
2022-09-01T09:35:55.038Z,3.30
2022-09-01T09:37:56.711Z,2.28
2022-09-01T09:40:15.248Z,3.05
2022-09-01T09:42:16.919Z,2.88
2022-09-01T09:44:28.516Z,0.70
2022-09-01T09:46:32.906Z,0.47
2022-09-01T09:48:35.331Z,1.80
2022-09-01T09:50:39.546Z,2.42
2022-09-01T09:52:41.168Z,2.13
2022-09-01T09:55:06.001Z,1.35
2022-09-01T09:57:17.616Z,3.50
2022-09-01T09:59:46.256Z,9.15
2022-09-01T10:01:53.330Z,2.78
2022-09-01T10:03:58.997Z,4.82
2022-09-01T10:06:01.080Z,19.88
2022-09-01T10:08:04.200Z,1.88
2022-09-01T10:10:30.610Z,1.58
2022-09-01T10:12:32.738Z,2.45
2022-09-01T10:14:53.353Z,2.03
2022-09-01T10:17:04.432Z,3.92
2022-09-01T10:19:12.545Z,0.55
2022-09-01T10:21:18.647Z,2.47
2022-09-01T10:23:20.279Z,13.18
2022-09-01T10:25:34.937Z,6.55
2022-09-01T10:27:42.434Z,4.53
2022-09-01T10:30:14.225Z,1.77
2022-09-01T10:32:36.996Z,1.95
2022-09-01T10:34:42.721Z,4.72
2022-09-01T10:36:47.089Z,4.43
2022-09-01T10:38:54.382Z,3.35
2022-09-01T10:41:14.911Z,3.15
2022-09-01T10:43:37.958Z,0.32
2022-09-01T10:45:40.402Z,4.32
2022-09-01T10:47:42.085Z,11.23
2022-09-01T10:49:47.215Z,2.67
2022-09-01T10:51:51.724Z,1.52
2022-09-01T10:53:55.177Z,2.38
2022-09-01T10:56:23.402Z,3.95
2022-09-01T11:01:41.177Z,1.88
2022-09-01T11:03:34.233Z,3.05
2022-09-01T11:06:10.984Z,3.42
2022-09-01T11:08:46.747Z,0.80
2022-09-01T11:11:28.310Z,2.15
2022-09-01T11:13:40.150Z,9.00
2022-09-01T11:15:43.086Z,5.13
2022-09-01T11:17:46.211Z,1.85
2022-09-01T11:19:58.312Z,2.38
2022-09-01T11:22:25.969Z,1.65
2022-09-01T11:24:40.380Z,0.20
2022-09-01T11:26:47.687Z,4.82
2022-09-01T11:28:49.651Z,1.27
2022-09-01T11:30:55.585Z,1.60
2022-09-01T11:33:01.727Z,3.72
2022-09-01T11:35:16.591Z,1.52
2022-09-01T11:37:22.804Z,1.58
2022-09-01T11:39:39.188Z,2.05
2022-09-01T11:41:42.957Z,0.57
2022-09-01T11:43:44.734Z,1.02
2022-09-01T11:46:08.013Z,1.45
2022-09-01T11:48:11.724Z,0.80
2022-09-01T11:50:16.391Z,2.53
2022-09-01T11:52:21.060Z,2.97
2022-09-01T11:54:25.005Z,1.90
2022-09-01T11:56:27.359Z,1.55
2022-09-01T11:58:29.128Z,1.38
2022-09-01T12:00:38.404Z,0.30
2022-09-01T12:02:47.248Z,2.50
2022-09-01T12:04:50.619Z,3.58
2022-09-01T12:06:58.121Z,3.83
2022-09-01T12:09:02.398Z,7.65
2022-09-01T12:11:07.438Z,4.90
2022-09-01T12:13:11.887Z,2.10
2022-09-01T12:15:26.211Z,2.90
2022-09-01T12:17:27.972Z,1.60
2022-09-01T12:19:32.309Z,0.40
2022-09-01T12:21:42.599Z,1.23
2022-09-01T12:23:45.370Z,3.60
2022-09-01T12:25:46.975Z,1.30
2022-09-01T12:27:48.889Z,4.28
2022-09-01T12:29:50.908Z,2.92
2022-09-01T12:31:53.213Z,4.63
2022-09-01T12:33:56.655Z,13.38
2022-09-01T12:36:27.110Z,7.45
2022-09-01T12:38:30.358Z,11.52
2022-09-01T12:40:34.357Z,5.15
2022-09-01T12:42:41.639Z,2.80
2022-09-01T12:44:53.873Z,2.47
2022-09-01T12:46:56.417Z,1.52
2022-09-01T12:49:16.577Z,2.90
2022-09-01T12:51:29.215Z,0.57
2022-09-01T12:53:36.659Z,3.25
2022-09-01T12:55:53.829Z,2.85
2022-09-01T12:57:58.512Z,6.00
2022-09-01T13:00:12.317Z,2.13
2022-09-01T13:02:27.934Z,1.10
2022-09-01T13:04:31.079Z,4.22
2022-09-01T13:06:33.472Z,6.80
2022-09-01T13:08:36.042Z,2.10
2022-09-01T13:10:43.212Z,4.43
2022-09-01T13:12:45.659Z,3.80
2022-09-01T13:14:48.006Z,2.10
2022-09-01T13:16:49.678Z,1.50
2022-09-01T13:21:13.550Z,3.58
2022-09-01T13:23:15.672Z,1.08
2022-09-01T13:25:19.618Z,3.03
2022-09-01T13:27:22.444Z,4.15
2022-09-01T13:29:24.733Z,11.73
2022-09-01T13:31:30.272Z,2.08
2022-09-01T13:34:09.459Z,10.35
2022-09-01T13:35:56.159Z,7.70
2022-09-01T13:37:57.782Z,11.85
2022-09-01T13:39:59.731Z,2.42
2022-09-01T13:42:01.321Z,4.47
2022-09-01T13:44:03.671Z,0.45
2022-09-01T13:46:05.426Z,10.93
2022-09-01T13:48:15.833Z,7.03
2022-09-01T13:50:23.911Z,3.13
2022-09-01T13:52:26.139Z,1.20
2022-09-01T13:54:27.979Z,6.18
2022-09-01T13:56:29.742Z,2.08
2022-09-01T13:58:31.347Z,2.05
2022-09-01T14:00:36.779Z,0.98
2022-09-01T14:02:39.936Z,1.10
2022-09-01T14:04:41.572Z,1.10
2022-09-01T14:06:44.318Z,3.25
2022-09-01T14:08:45.887Z,7.35
2022-09-01T14:10:50.907Z,7.00
2022-09-01T14:13:04.979Z,7.13
2022-09-01T14:15:17.249Z,9.15
2022-09-01T14:17:20.104Z,6.53
2022-09-01T14:19:22.264Z,5.70
2022-09-01T14:21:24.038Z,7.10
2022-09-01T14:23:25.623Z,5.28
2022-09-01T14:25:27.259Z,2.50
2022-09-01T14:27:28.836Z,1.33
2022-09-01T14:29:30.386Z,0.60
2022-09-01T14:31:32.085Z,2.45
2022-09-01T14:33:34.190Z,3.40
2022-09-01T14:35:41.402Z,3.13
2022-09-01T14:37:44.062Z,8.93
2022-09-01T14:39:56.851Z,3.13
2022-09-01T14:41:58.403Z,4.47
2022-09-01T14:44:03.209Z,4.38
2022-09-01T14:46:07.063Z,1.88
2022-09-01T14:48:09.222Z,4.07
2022-09-01T14:50:12.141Z,7.90
2022-09-01T14:52:14.428Z,15.65
2022-09-01T14:54:16.028Z,5.63
2022-09-01T14:56:19.149Z,5.38
2022-09-01T14:58:20.828Z,6.00
2022-09-01T15:00:25.187Z,3.88
2022-09-01T15:02:29.220Z,10.90
2022-09-01T15:04:31.517Z,6.22
2022-09-01T15:06:34.000Z,4.47
2022-09-01T15:08:36.252Z,4.72
2022-09-01T15:10:37.807Z,5.90
2022-09-01T15:12:39.868Z,6.30
2022-09-01T15:14:41.442Z,4.30
2022-09-01T15:16:43.116Z,3.75
2022-09-01T15:18:44.881Z,2.58
2022-09-01T15:20:46.598Z,2.25
2022-09-01T15:22:49.772Z,3.22
2022-09-01T15:24:51.322Z,2.33
2022-09-01T15:26:52.944Z,1.52
2022-09-01T15:28:55.170Z,5.32
2022-09-01T15:30:57.276Z,1.45
2022-09-01T15:32:59.201Z,2.22
2022-09-01T15:35:00.784Z,3.13
2022-09-01T15:37:02.398Z,1.67
2022-09-01T15:39:04.008Z,1.83
2022-09-01T15:41:05.630Z,1.95
2022-09-01T15:43:07.697Z,3.10
2022-09-01T15:45:13.138Z,4.68
2022-09-01T15:47:14.778Z,4.03
2022-09-01T15:49:18.083Z,1.05
2022-09-01T15:51:22.802Z,1.70
2022-09-01T15:53:24.390Z,3.97
2022-09-01T15:55:31.946Z,4.15
2022-09-01T15:57:33.576Z,1.30
2022-09-01T15:59:35.640Z,1.48
2022-09-01T16:01:40.087Z,5.70
2022-09-01T16:03:41.842Z,4.15
2022-09-01T16:05:43.409Z,3.53
2022-09-01T16:07:45.184Z,2.22
2022-09-01T16:09:46.804Z,2.08
2022-09-01T16:11:48.470Z,2.78
2022-09-01T16:13:53.991Z,3.60
2022-09-01T16:16:23.240Z,3.35
2022-09-01T16:18:37.625Z,3.78
2022-09-01T16:20:55.353Z,2.55
2022-09-01T16:23:18.646Z,4.28
2022-09-01T16:25:32.244Z,1.45
2022-09-01T16:27:41.132Z,4.50
2022-09-01T16:29:53.817Z,2.33
2022-09-01T16:31:56.427Z,5.00
2022-09-01T16:34:02.670Z,4.78
2022-09-01T16:36:37.538Z,5.88
2022-09-01T16:39:22.655Z,3.95
2022-09-01T16:41:50.351Z,2.75
2022-09-01T16:43:54.837Z,1.98
2022-09-01T16:46:13.313Z,1.27
2022-09-01T16:48:20.193Z,3.35
2022-09-01T16:50:38.927Z,5.82
2022-09-01T16:53:02.918Z,3.97
2022-09-01T16:55:15.991Z,31.38
2022-09-01T16:57:36.338Z,84.32
2022-09-01T16:59:48.773Z,23.40
2022-09-01T17:02:17.559Z,4.75
2022-09-01T17:04:26.049Z,9.02
2022-09-01T17:06:31.981Z,12.02
2022-09-01T17:08:45.345Z,9.65
2022-09-01T17:10:51.860Z,5.22
2022-09-01T17:12:57.741Z,10.05
2022-09-01T17:15:12.744Z,6.55
2022-09-01T17:17:19.871Z,2.85
2022-09-01T17:19:21.957Z,9.90
2022-09-01T17:21:49.517Z,5.10
2022-09-01T17:24:05.818Z,6.28
2022-09-01T17:26:17.600Z,3.08
2022-09-01T17:28:28.648Z,3.13
2022-09-01T17:30:31.963Z,4.80
2022-09-01T17:32:41.641Z,6.32
2022-09-01T17:35:24.996Z,14.27
2022-09-01T17:37:53.158Z,13.30
2022-09-01T17:40:03.885Z,14.77
2022-09-01T17:42:21.799Z,12.55
2022-09-01T17:44:51.384Z,7.53
2022-09-01T17:47:17.771Z,12.75
2022-09-01T17:49:39.033Z,11.77
2022-09-01T17:52:08.120Z,22.35
2022-09-01T17:54:31.604Z,30.35
2022-09-01T17:56:46.174Z,35.75
2022-09-01T17:58:56.601Z,39.28
2022-09-01T18:01:09.993Z,60.05
2022-09-01T18:03:26.998Z,16.58
2022-09-01T18:05:30.718Z,17.30
2022-09-01T18:08:09.988Z,28.35
2022-09-01T18:10:14.218Z,24.42
2022-09-01T18:12:19.624Z,31.48
2022-09-01T18:14:25.101Z,23.02
2022-09-01T18:16:30.020Z,21.95
2022-09-01T18:18:40.779Z,18.42
2022-09-01T18:20:45.003Z,16.80
2022-09-01T18:22:58.702Z,23.98
2022-09-01T18:25:04.670Z,28.52
2022-09-01T18:27:07.987Z,32.35
2022-09-01T18:29:09.639Z,30.48
2022-09-01T18:31:17.151Z,43.63
2022-09-01T18:33:33.626Z,44.53
2022-09-01T18:35:41.799Z,52.40
2022-09-01T18:37:49.412Z,48.40
2022-09-01T18:39:57.903Z,31.52
2022-09-01T18:42:09.055Z,27.48
2022-09-01T18:44:32.587Z,29.55
2022-09-01T18:46:44.866Z,32.28
2022-09-01T18:48:53.998Z,14.77
2022-09-01T18:51:18.006Z,10.13
2022-09-01T18:53:29.759Z,10.88
2022-09-01T18:55:40.338Z,21.13
2022-09-01T18:57:42.979Z,28.52
2022-09-01T18:59:57.385Z,20.08
2022-09-01T19:02:03.944Z,8.38
2022-09-01T19:04:20.770Z,10.18
2022-09-01T19:06:29.767Z,9.18
2022-09-01T19:08:37.661Z,6.53
2022-09-01T19:10:59.922Z,8.15
2022-09-01T19:13:20.377Z,9.25
2022-09-01T19:15:54.420Z,7.25
2022-09-01T19:18:18.251Z,9.77
2022-09-01T19:20:30.098Z,9.23
2022-09-01T19:22:59.801Z,7.93
2022-09-01T19:25:25.016Z,10.40
2022-09-01T19:27:31.206Z,9.82
2022-09-01T19:29:37.105Z,6.88
2022-09-01T19:31:42.452Z,7.93
2022-09-01T19:33:47.694Z,13.63
2022-09-01T19:35:54.601Z,10.27
2022-09-01T19:37:56.214Z,8.55
2022-09-01T19:39:57.807Z,8.80
2022-09-01T19:42:11.412Z,13.98
2022-09-01T19:44:15.197Z,14.02
2022-09-01T19:46:28.820Z,17.85
2022-09-01T19:48:49.325Z,16.73
2022-09-01T19:50:57.611Z,18.08
2022-09-01T19:53:04.889Z,19.05
2022-09-01T19:55:19.534Z,17.95
2022-09-01T19:57:45.059Z,20.90
2022-09-01T19:59:53.055Z,29.10
2022-09-01T20:02:00.048Z,29.88
2022-09-01T20:04:11.629Z,24.40
2022-09-01T20:06:34.394Z,31.10
2022-09-01T20:09:08.286Z,29.00
2022-09-01T20:11:28.327Z,27.02
2022-09-01T20:13:56.254Z,31.55
2022-09-01T20:16:15.948Z,35.42
2022-09-01T20:18:40.852Z,26.30
2022-09-01T20:20:46.340Z,36.05
2022-09-01T20:23:04.410Z,31.13
2022-09-01T20:25:12.917Z,38.97
2022-09-01T20:27:14.447Z,26.25
2022-09-01T20:29:29.762Z,26.05
2022-09-01T20:31:54.142Z,24.25
2022-09-01T20:34:29.322Z,16.08
2022-09-01T20:36:45.559Z,12.55
2022-09-01T20:39:07.908Z,15.48
2022-09-01T20:41:18.819Z,16.88
2022-09-01T20:43:26.514Z,18.25
2022-09-01T20:45:29.444Z,11.25
2022-09-01T20:47:31.712Z,11.90
2022-09-01T20:49:34.808Z,14.90
2022-09-01T20:51:39.108Z,14.32
2022-09-01T20:54:12.767Z,15.85
2022-09-01T20:56:34.043Z,23.05
2022-09-01T20:58:46.978Z,25.98
2022-09-01T21:00:53.583Z,25.52
2022-09-01T21:03:03.843Z,14.65
2022-09-01T21:07:35.256Z,10.27
2022-09-01T21:10:10.541Z,8.60
2022-09-01T21:12:18.094Z,7.65
2022-09-01T21:15:00.920Z,8.35
2022-09-01T21:17:27.152Z,10.57
2022-09-01T21:19:44.420Z,18.88
2022-09-01T21:22:04.027Z,22.35
2022-09-01T21:24:05.884Z,17.88
2022-09-01T21:26:07.645Z,20.98
2022-09-01T21:28:09.198Z,17.08
2022-09-01T21:30:14.134Z,16.88
2022-09-01T21:32:16.480Z,21.77
2022-09-01T21:34:18.075Z,21.75
2022-09-01T21:36:19.663Z,20.27
2022-09-01T21:38:21.616Z,16.70
2022-09-01T21:40:24.655Z,12.50
2022-09-01T21:42:49.128Z,16.88
2022-09-01T21:44:51.089Z,14.85
2022-09-01T21:46:57.032Z,17.85
2022-09-01T21:48:58.598Z,18.88
2022-09-01T21:51:00.605Z,14.02
2022-09-01T21:53:02.197Z,18.65
2022-09-01T21:55:04.728Z,15.18
2022-09-01T21:57:06.384Z,13.95
2022-09-01T21:59:07.958Z,18.20
2022-09-01T22:01:11.990Z,10.57
2022-09-01T22:03:16.002Z,9.02
2022-09-01T22:05:17.670Z,10.48
2022-09-01T22:07:21.079Z,10.70
2022-09-01T22:09:23.079Z,13.18
2022-09-01T22:11:24.653Z,13.40
2022-09-01T22:13:26.325Z,12.18
2022-09-01T22:15:27.876Z,13.05
2022-09-01T22:17:31.608Z,12.80
2022-09-01T22:19:34.930Z,16.85
2022-09-01T22:21:37.357Z,11.70
2022-09-01T22:23:39.370Z,13.57
2022-09-01T22:25:43.044Z,13.32
2022-09-01T22:27:44.719Z,16.30
2022-09-01T22:29:46.879Z,17.88
2022-09-01T22:31:48.426Z,20.40
2022-09-01T22:33:50.047Z,19.73
2022-09-01T22:35:54.363Z,22.10
2022-09-01T22:37:55.939Z,22.25
2022-09-01T22:39:57.510Z,24.02
2022-09-01T22:41:59.906Z,18.55
2022-09-01T22:44:02.953Z,19.95
2022-09-01T22:46:05.973Z,16.58
2022-09-01T22:48:07.635Z,18.15
2022-09-01T22:50:09.819Z,18.38
2022-09-01T22:52:11.486Z,21.33
2022-09-01T22:54:15.500Z,22.25
2022-09-01T22:56:26.207Z,22.67
2022-09-01T22:58:27.850Z,23.23
2022-09-01T23:00:29.430Z,22.85
2022-09-01T23:02:31.071Z,23.08
2022-09-01T23:04:32.710Z,24.02
2022-09-01T23:06:35.302Z,19.88
2022-09-01T23:08:38.094Z,21.45
2022-09-01T23:10:40.294Z,26.23
2022-09-01T23:12:42.086Z,24.83
2022-09-01T23:14:43.660Z,23.98
2022-09-01T23:16:46.061Z,26.05
2022-09-01T23:18:48.904Z,17.60
2022-09-01T23:20:50.949Z,18.58
2022-09-01T23:22:52.650Z,13.27
2022-09-01T23:24:54.414Z,16.40
2022-09-01T23:26:56.823Z,12.05
2022-09-01T23:28:59.665Z,13.40
2022-09-01T23:31:01.897Z,12.88
2022-09-01T23:33:03.517Z,13.27
2022-09-01T23:35:05.639Z,15.68
2022-09-01T23:37:07.546Z,14.10
2022-09-01T23:39:09.180Z,11.80
2022-09-01T23:41:13.486Z,12.63
2022-09-01T23:43:16.247Z,12.68
2022-09-01T23:45:17.869Z,6.80
2022-09-01T23:47:19.646Z,8.43
2022-09-01T23:49:21.239Z,8.80
2022-09-01T23:51:23.978Z,6.22
2022-09-01T23:53:29.429Z,6.60
2022-09-01T23:55:31.052Z,8.60
2022-09-01T23:57:32.606Z,6.85
2022-09-01T23:59:34.153Z,6.15
